createdAt,value
2019-03-27T00:02:04.254Z,92.60
2019-03-27T00:04:38.125Z,92.70
2019-03-27T00:07:11.874Z,92.90
2019-03-27T00:09:45.681Z,92.90
2019-03-27T00:12:19.534Z,93.00
2019-03-27T00:14:53.352Z,93.10
2019-03-27T00:17:28.074Z,93.20
2019-03-27T00:20:02.185Z,93.40
2019-03-27T00:22:35.647Z,93.60
2019-03-27T00:25:10.035Z,93.50
2019-03-27T00:27:46.437Z,93.50
2019-03-27T00:30:20.235Z,93.60
2019-03-27T00:32:54.508Z,93.50
2019-03-27T00:35:27.958Z,93.70
2019-03-27T00:38:03.717Z,93.90
2019-03-27T00:40:37.687Z,94.20
2019-03-27T00:43:11.632Z,94.30
2019-03-27T00:45:46.264Z,94.50
2019-03-27T00:48:21.054Z,94.70
2019-03-27T00:50:55.807Z,95.20
2019-03-27T00:53:30.094Z,95.20
2019-03-27T00:56:04.246Z,95.10
2019-03-27T00:58:39.559Z,95.00
2019-03-27T01:01:17.049Z,95.30
2019-03-27T01:03:50.974Z,95.50
2019-03-27T01:06:25.311Z,95.60
2019-03-27T01:09:02.558Z,95.30
2019-03-27T01:11:37.307Z,95.40
2019-03-27T01:14:11.501Z,95.20
2019-03-27T01:16:46.469Z,95.00
2019-03-27T01:19:23.822Z,94.90
2019-03-27T01:21:59.970Z,94.80
2019-03-27T01:24:35.732Z,95.10
2019-03-27T01:27:11.648Z,95.10
2019-03-27T01:29:48.413Z,95.10
2019-03-27T01:32:24.426Z,95.10
2019-03-27T01:34:58.446Z,95.20
2019-03-27T01:37:31.986Z,95.20
2019-03-27T01:40:06.254Z,95.20
2019-03-27T01:42:39.951Z,95.40
2019-03-27T01:45:13.368Z,95.70
2019-03-27T01:47:46.587Z,95.80
2019-03-27T01:50:20.533Z,96.00
2019-03-27T01:52:54.383Z,96.20
2019-03-27T01:55:28.368Z,96.20
2019-03-27T01:58:02.349Z,96.20
2019-03-27T02:00:35.896Z,96.10
2019-03-27T02:03:10.431Z,96.20
2019-03-27T02:05:43.520Z,96.20
2019-03-27T02:08:18.673Z,96.30
2019-03-27T02:10:52.294Z,96.70
2019-03-27T02:13:26.487Z,96.90
2019-03-27T02:16:06.894Z,96.90
2019-03-27T02:18:35.766Z,97.00
2019-03-27T02:21:09.958Z,97.20
2019-03-27T02:23:47.864Z,97.10
2019-03-27T02:26:21.234Z,97.40
2019-03-27T02:28:55.138Z,97.70
2019-03-27T02:31:28.503Z,98.00
2019-03-27T02:34:02.821Z,98.50
2019-03-27T02:36:38.051Z,99.00
2019-03-27T02:39:11.658Z,99.10
2019-03-27T02:41:45.668Z,99.20
2019-03-27T02:44:19.717Z,99.40
2019-03-27T02:46:53.353Z,99.60
2019-03-27T02:49:26.719Z,99.70
2019-03-27T02:52:00.611Z,99.60
2019-03-27T02:54:34.598Z,99.90
2019-03-27T02:57:09.121Z,99.90
2019-03-27T02:59:42.225Z,99.90
2019-03-27T03:02:15.775Z,99.90
2019-03-27T03:04:49.684Z,99.90
2019-03-27T03:07:23.635Z,99.90
2019-03-27T03:09:58.183Z,99.90
2019-03-27T03:12:32.051Z,99.90
2019-03-27T03:15:09.108Z,99.90
2019-03-27T03:17:42.870Z,99.90
2019-03-27T03:20:17.457Z,99.90
2019-03-27T03:22:51.440Z,99.90
2019-03-27T03:25:24.811Z,99.90
2019-03-27T03:27:58.479Z,99.90
2019-03-27T03:30:33.011Z,99.90
2019-03-27T03:33:06.991Z,99.90
2019-03-27T03:35:41.165Z,99.90
2019-03-27T03:38:14.301Z,99.90
2019-03-27T03:40:47.949Z,99.90
2019-03-27T03:43:25.334Z,99.90
2019-03-27T03:45:59.740Z,99.90
2019-03-27T03:48:34.109Z,99.90
2019-03-27T03:51:09.112Z,99.90
2019-03-27T03:53:42.466Z,99.90
2019-03-27T03:56:18.651Z,99.90
2019-03-27T03:58:53.051Z,99.90
2019-03-27T04:01:29.204Z,99.90
2019-03-27T04:04:05.680Z,99.90
2019-03-27T04:06:39.811Z,99.90
2019-03-27T04:09:14.178Z,99.90
2019-03-27T04:11:48.212Z,99.90
2019-03-27T04:14:22.480Z,99.90
2019-03-27T04:16:56.026Z,99.90
2019-03-27T04:19:29.446Z,99.90
2019-03-27T04:22:03.584Z,99.90
2019-03-27T04:24:38.780Z,99.90
2019-03-27T04:27:12.599Z,99.90
2019-03-27T04:29:46.772Z,99.90
2019-03-27T04:32:21.101Z,99.90
2019-03-27T04:34:56.208Z,99.90
2019-03-27T04:37:30.109Z,99.90
2019-03-27T04:40:04.252Z,99.90
2019-03-27T04:42:38.023Z,99.90
2019-03-27T04:45:12.230Z,99.90
2019-03-27T04:47:45.970Z,99.90
2019-03-27T04:50:19.738Z,99.90
2019-03-27T04:52:54.520Z,99.90
2019-03-27T04:55:28.996Z,99.90
2019-03-27T04:58:03.899Z,99.90
2019-03-27T05:00:37.614Z,99.90
2019-03-27T05:03:14.496Z,99.90
2019-03-27T05:05:48.406Z,99.90
2019-03-27T05:08:22.691Z,99.90
2019-03-27T05:10:56.397Z,99.90
2019-03-27T05:13:30.869Z,99.90
2019-03-27T05:16:04.721Z,99.90
2019-03-27T05:18:38.548Z,99.90
2019-03-27T05:21:13.237Z,99.90
2019-03-27T05:23:47.415Z,99.90
2019-03-27T05:26:21.523Z,99.90
2019-03-27T05:28:55.188Z,99.90
2019-03-27T05:31:30.276Z,99.90
2019-03-27T05:34:04.759Z,99.90
2019-03-27T05:36:38.392Z,99.90
2019-03-27T05:39:14.582Z,99.90
2019-03-27T05:41:47.707Z,99.90
2019-03-27T05:44:21.791Z,99.90
2019-03-27T05:46:55.354Z,99.90
2019-03-27T05:49:28.860Z,99.90
2019-03-27T05:52:03.353Z,99.90
2019-03-27T05:54:36.943Z,99.90
2019-03-27T05:57:10.514Z,99.90
2019-03-27T05:59:44.412Z,99.90
2019-03-27T06:02:19.804Z,99.90
2019-03-27T06:04:53.661Z,99.90
2019-03-27T06:07:27.447Z,99.90
2019-03-27T06:10:01.856Z,99.90
2019-03-27T06:12:35.436Z,99.90
2019-03-27T06:15:08.967Z,99.90
2019-03-27T06:17:42.159Z,99.90
2019-03-27T06:20:15.416Z,99.90
2019-03-27T06:22:48.200Z,99.90
2019-03-27T06:25:22.752Z,99.90
2019-03-27T06:27:55.985Z,99.90
2019-03-27T06:30:31.919Z,99.90
2019-03-27T06:33:05.005Z,99.90
2019-03-27T06:35:38.004Z,99.90
2019-03-27T06:38:11.160Z,99.90
2019-03-27T06:40:43.892Z,99.90
2019-03-27T06:43:16.921Z,99.90
2019-03-27T06:45:49.889Z,99.90
2019-03-27T06:48:26.447Z,99.90
2019-03-27T06:50:56.844Z,99.90
2019-03-27T06:53:30.218Z,99.90
2019-03-27T06:56:03.291Z,99.90
2019-03-27T06:58:36.502Z,99.90
2019-03-27T07:01:09.280Z,99.90
2019-03-27T07:03:42.317Z,99.90
2019-03-27T07:06:15.756Z,99.90
2019-03-27T07:08:49.341Z,99.90
2019-03-27T07:11:24.845Z,99.90
2019-03-27T07:13:57.726Z,99.90
2019-03-27T07:16:30.100Z,99.90
2019-03-27T07:19:06.081Z,99.90
2019-03-27T07:21:38.712Z,99.90
2019-03-27T07:24:13.202Z,99.90
2019-03-27T07:26:45.819Z,99.90
2019-03-27T07:29:19.303Z,99.90
2019-03-27T07:31:51.801Z,99.90
2019-03-27T07:34:25.244Z,99.90
2019-03-27T07:36:58.983Z,99.90
2019-03-27T07:39:33.035Z,99.50
2019-03-27T07:42:05.579Z,99.10
2019-03-27T07:44:38.521Z,98.70
2019-03-27T07:47:11.937Z,98.10
2019-03-27T07:49:44.788Z,97.40
2019-03-27T07:52:18.876Z,96.30
2019-03-27T07:54:52.970Z,96.00
2019-03-27T07:57:26.572Z,95.30
2019-03-27T07:59:59.162Z,94.50
2019-03-27T08:02:31.891Z,93.30
2019-03-27T08:05:07.565Z,92.50
2019-03-27T08:07:41.504Z,91.70
2019-03-27T08:10:14.756Z,91.10
2019-03-27T08:12:48.481Z,90.90
2019-03-27T08:15:22.177Z,89.90
2019-03-27T08:17:56.903Z,89.90
2019-03-27T08:20:30.811Z,89.70
2019-03-27T08:23:06.977Z,89.60
2019-03-27T08:25:40.785Z,90.40
2019-03-27T08:28:14.113Z,90.80
2019-03-27T08:30:46.934Z,91.10
2019-03-27T08:33:19.986Z,90.80
2019-03-27T08:35:53.283Z,90.60
2019-03-27T08:38:32.659Z,90.20
2019-03-27T08:41:05.392Z,90.00
2019-03-27T08:43:38.134Z,90.40
2019-03-27T08:46:11.002Z,90.30
2019-03-27T08:48:43.851Z,89.80
2019-03-27T08:51:17.712Z,89.10
2019-03-27T08:53:50.171Z,88.00
2019-03-27T08:56:25.840Z,86.60
2019-03-27T08:59:00.729Z,85.30
2019-03-27T09:01:33.457Z,82.30
2019-03-27T09:04:06.486Z,82.00
2019-03-27T09:06:39.650Z,81.60
2019-03-27T09:09:12.977Z,81.60
2019-03-27T09:11:45.468Z,82.40
2019-03-27T09:14:18.120Z,82.90
2019-03-27T09:16:50.639Z,83.90
2019-03-27T09:19:35.024Z,84.50
2019-03-27T09:21:59.697Z,84.50
2019-03-27T09:24:32.808Z,84.00
2019-03-27T09:27:05.491Z,84.50
2019-03-27T09:29:39.261Z,82.40
2019-03-27T09:32:12.260Z,81.50
2019-03-27T09:34:45.002Z,81.00
2019-03-27T09:37:17.986Z,80.80
2019-03-27T09:39:51.489Z,78.90
2019-03-27T09:42:26.446Z,78.20
2019-03-27T09:44:58.972Z,78.10
2019-03-27T09:47:34.594Z,78.50
2019-03-27T09:50:08.501Z,78.70
2019-03-27T09:52:41.917Z,80.30
2019-03-27T09:55:16.486Z,81.20
2019-03-27T09:57:55.388Z,81.20
2019-03-27T10:01:03.216Z,80.30
2019-03-27T10:03:36.473Z,80.30
2019-03-27T10:06:10.971Z,80.40
2019-03-27T10:08:47.265Z,79.90
2019-03-27T10:11:23.757Z,79.60
2019-03-27T10:13:57.392Z,78.40
2019-03-27T10:16:30.918Z,78.40
2019-03-27T10:19:05.234Z,77.90
2019-03-27T10:21:40.114Z,77.10
2019-03-27T10:24:14.152Z,77.00
2019-03-27T10:26:48.152Z,76.80
2019-03-27T10:29:21.285Z,76.60
2019-03-27T10:31:54.058Z,76.80
2019-03-27T10:34:27.043Z,77.20
2019-03-27T10:36:59.713Z,77.20
2019-03-27T10:39:33.868Z,77.20
2019-03-27T10:42:06.654Z,77.20
2019-03-27T10:44:40.433Z,77.10
2019-03-27T10:47:13.663Z,76.50
2019-03-27T10:49:46.727Z,75.20
2019-03-27T10:52:19.970Z,74.40
2019-03-27T10:54:52.927Z,74.10
2019-03-27T10:57:26.701Z,74.60
2019-03-27T11:00:01.605Z,74.80
2019-03-27T11:02:38.730Z,73.80
2019-03-27T11:05:12.221Z,73.50
2019-03-27T11:07:47.465Z,73.20
2019-03-27T11:10:22.209Z,72.40
2019-03-27T11:12:54.757Z,70.70
2019-03-27T11:15:27.881Z,68.20
2019-03-27T11:18:02.203Z,66.70
2019-03-27T11:20:35.439Z,65.50
2019-03-27T11:23:08.485Z,67.50
2019-03-27T11:25:41.148Z,67.70
2019-03-27T11:28:13.818Z,68.70
2019-03-27T11:30:48.544Z,68.30
2019-03-27T11:33:22.447Z,68.10
2019-03-27T11:35:55.068Z,66.60
2019-03-27T11:38:30.109Z,65.20
2019-03-27T11:41:03.939Z,65.30
2019-03-27T11:43:37.766Z,67.30
2019-03-27T11:46:10.945Z,68.20
2019-03-27T11:48:44.005Z,68.90
2019-03-27T11:51:17.677Z,69.20
2019-03-27T11:53:50.572Z,69.20
2019-03-27T11:56:23.028Z,69.60
2019-03-27T11:58:55.973Z,70.50
2019-03-27T12:01:39.253Z,70.70
2019-03-27T12:04:04.516Z,70.30
2019-03-27T12:06:39.578Z,70.10
2019-03-27T12:09:16.970Z,69.80
2019-03-27T12:11:49.973Z,68.90
2019-03-27T12:14:23.942Z,68.60
2019-03-27T12:16:56.637Z,68.60
2019-03-27T12:19:29.110Z,66.60
2019-03-27T12:22:02.098Z,65.20
2019-03-27T12:24:35.800Z,64.50
2019-03-27T12:27:07.653Z,64.00
2019-03-27T12:29:41.532Z,61.20
2019-03-27T12:32:14.360Z,59.40
2019-03-27T12:34:46.763Z,58.50
2019-03-27T12:37:21.364Z,59.10
2019-03-27T12:39:54.360Z,59.70
2019-03-27T12:42:27.931Z,61.30
2019-03-27T12:45:02.321Z,62.10
2019-03-27T12:47:36.324Z,63.40
2019-03-27T12:50:09.431Z,64.90
2019-03-27T12:52:42.110Z,65.90
2019-03-27T12:55:14.459Z,65.00
2019-03-27T12:57:48.965Z,65.20
2019-03-27T13:00:22.633Z,65.10
2019-03-27T13:02:56.026Z,65.20
2019-03-27T13:05:32.499Z,65.30
2019-03-27T13:08:06.546Z,64.40
2019-03-27T13:10:40.036Z,62.60
2019-03-27T13:13:15.239Z,60.40
2019-03-27T13:15:49.384Z,59.40
2019-03-27T13:18:22.584Z,58.50
2019-03-27T13:20:55.416Z,59.50
2019-03-27T13:23:28.732Z,61.30
2019-03-27T13:26:03.089Z,61.90
2019-03-27T13:28:48.320Z,62.70
2019-03-27T13:31:10.525Z,63.10
2019-03-27T13:33:44.473Z,63.20
2019-03-27T13:36:18.002Z,64.50
2019-03-27T13:38:51.317Z,64.80
2019-03-27T13:41:24.663Z,65.70
2019-03-27T13:43:58.826Z,65.50
2019-03-27T13:46:32.874Z,66.00
2019-03-27T13:49:07.549Z,66.40
2019-03-27T13:51:41.312Z,68.10
2019-03-27T13:54:16.388Z,68.20
2019-03-27T13:56:49.290Z,69.00
2019-03-27T13:59:25.936Z,69.20
2019-03-27T14:01:58.951Z,69.20
2019-03-27T14:04:32.207Z,69.40
2019-03-27T14:07:05.095Z,69.60
2019-03-27T14:09:37.560Z,69.50
2019-03-27T14:12:10.509Z,69.50
2019-03-27T14:14:50.119Z,69.40
2019-03-27T14:17:18.602Z,69.50
2019-03-27T14:19:51.572Z,68.80
2019-03-27T14:22:24.994Z,69.00
2019-03-27T14:24:58.549Z,69.60
2019-03-27T14:27:32.296Z,69.60
2019-03-27T14:30:07.309Z,69.80
2019-03-27T14:32:41.622Z,69.40
2019-03-27T14:35:14.948Z,69.30
2019-03-27T14:37:47.652Z,69.20
2019-03-27T14:40:23.125Z,68.90
2019-03-27T14:42:57.717Z,69.30
2019-03-27T14:45:34.362Z,69.60
2019-03-27T14:48:07.246Z,69.50
2019-03-27T14:50:40.813Z,70.00
2019-03-27T14:53:14.437Z,70.60
2019-03-27T14:55:47.527Z,70.90
2019-03-27T14:58:22.409Z,70.10
2019-03-27T15:00:54.976Z,69.70
2019-03-27T15:03:28.609Z,69.80
2019-03-27T15:06:03.177Z,69.90
2019-03-27T15:08:39.365Z,69.90
2019-03-27T15:11:12.471Z,69.30
2019-03-27T15:13:46.958Z,69.60
2019-03-27T15:16:20.044Z,69.60
2019-03-27T15:18:53.494Z,69.70
2019-03-27T15:21:26.929Z,69.30
2019-03-27T15:23:59.892Z,69.20
2019-03-27T15:26:33.627Z,68.70
2019-03-27T15:29:08.728Z,69.30
2019-03-27T15:31:45.135Z,69.70
2019-03-27T15:34:19.189Z,70.00
2019-03-27T15:36:51.639Z,69.60
2019-03-27T15:39:26.720Z,69.90
2019-03-27T15:42:00.274Z,70.60
2019-03-27T15:44:33.546Z,70.40
2019-03-27T15:47:06.420Z,70.40
2019-03-27T15:49:40.781Z,70.90
2019-03-27T15:52:15.701Z,71.20
2019-03-27T15:54:53.277Z,71.20
2019-03-27T15:57:27.725Z,71.20
2019-03-27T16:00:00.679Z,71.20
2019-03-27T16:02:33.927Z,71.30
2019-03-27T16:05:09.000Z,71.10
2019-03-27T16:07:42.735Z,71.10
2019-03-27T16:10:19.132Z,70.70
2019-03-27T16:12:56.680Z,70.30
2019-03-27T16:15:37.067Z,70.10
2019-03-27T16:18:10.803Z,69.90
2019-03-27T16:20:44.833Z,69.90
2019-03-27T16:23:20.625Z,70.50
2019-03-27T16:25:54.566Z,70.70
2019-03-27T16:28:28.840Z,70.60
2019-03-27T16:31:02.631Z,70.30
2019-03-27T16:33:36.527Z,69.60
2019-03-27T16:36:09.717Z,69.50
2019-03-27T16:38:42.821Z,69.00
2019-03-27T16:41:15.662Z,69.00
2019-03-27T16:43:50.503Z,70.00
2019-03-27T16:46:25.335Z,70.50
2019-03-27T16:48:58.623Z,70.90
2019-03-27T16:51:33.318Z,71.50
2019-03-27T16:54:06.677Z,71.70
2019-03-27T16:56:39.777Z,72.20
2019-03-27T16:59:13.071Z,72.30
2019-03-27T17:01:46.368Z,72.90
2019-03-27T17:04:19.558Z,73.30
2019-03-27T17:06:53.296Z,74.20
2019-03-27T17:09:25.667Z,74.10
2019-03-27T17:12:02.820Z,74.40
2019-03-27T17:14:35.959Z,74.50
2019-03-27T17:17:17.219Z,75.00
2019-03-27T17:19:51.727Z,75.10
2019-03-27T17:22:27.169Z,75.50
2019-03-27T17:25:00.875Z,75.40
2019-03-27T17:27:37.150Z,75.90
2019-03-27T17:30:10.860Z,76.10
2019-03-27T17:32:46.738Z,76.40
2019-03-27T17:35:38.579Z,76.60
2019-03-27T17:38:28.319Z,77.00
2019-03-27T17:41:03.831Z,76.70
2019-03-27T17:43:38.699Z,77.20
2019-03-27T17:46:13.896Z,77.50
2019-03-27T17:49:02.645Z,77.40
2019-03-27T17:51:36.387Z,77.50
2019-03-27T17:54:20.474Z,77.70
2019-03-27T17:56:51.614Z,77.70
2019-03-27T17:59:28.479Z,77.90
2019-03-27T18:02:02.210Z,78.10
2019-03-27T18:04:35.690Z,78.30
2019-03-27T18:07:10.832Z,78.50
2019-03-27T18:09:49.038Z,78.60
2019-03-27T18:12:24.206Z,78.80
2019-03-27T18:14:58.022Z,79.00
2019-03-27T18:17:35.215Z,79.30
2019-03-27T18:20:08.962Z,79.30
2019-03-27T18:22:52.212Z,79.30
2019-03-27T18:25:36.231Z,79.00
2019-03-27T18:28:20.173Z,79.20
2019-03-27T18:31:06.929Z,79.80
2019-03-27T18:33:41.386Z,79.80
2019-03-27T18:36:17.789Z,80.00
2019-03-27T18:38:59.387Z,80.00
2019-03-27T18:41:33.106Z,80.00
2019-03-27T18:44:06.122Z,80.10
2019-03-27T18:46:47.583Z,80.10
2019-03-27T18:49:26.857Z,80.30
2019-03-27T18:52:04.726Z,80.40
2019-03-27T18:54:41.391Z,80.40
2019-03-27T18:57:15.023Z,80.70
2019-03-27T18:59:50.014Z,80.70
2019-03-27T19:02:27.176Z,80.70
2019-03-27T19:05:02.280Z,80.60
2019-03-27T19:07:36.737Z,80.80
2019-03-27T19:10:16.064Z,80.90
2019-03-27T19:12:51.181Z,80.90
2019-03-27T19:15:30.147Z,80.90
2019-03-27T19:18:08.222Z,81.10
2019-03-27T19:20:44.759Z,81.30
2019-03-27T19:23:22.826Z,81.60
2019-03-27T19:25:59.424Z,81.60
2019-03-27T19:28:32.962Z,81.70
2019-03-27T19:31:06.562Z,81.90
2019-03-27T19:33:40.810Z,82.00
2019-03-27T19:36:16.493Z,82.10
2019-03-27T19:38:51.395Z,82.20
2019-03-27T19:41:25.754Z,82.30
2019-03-27T19:44:00.672Z,82.20
2019-03-27T19:46:33.458Z,82.60
2019-03-27T19:49:10.052Z,82.90
2019-03-27T19:51:42.978Z,82.80
2019-03-27T19:54:26.592Z,82.70
2019-03-27T19:56:53.236Z,83.00
2019-03-27T19:59:29.235Z,83.00
2019-03-27T20:02:02.568Z,83.00
2019-03-27T20:04:38.307Z,83.10
2019-03-27T20:07:12.142Z,83.00
2019-03-27T20:09:45.416Z,83.00
2019-03-27T20:12:19.438Z,83.30
2019-03-27T20:14:53.029Z,83.10
2019-03-27T20:17:26.125Z,83.00
2019-03-27T20:20:00.403Z,83.30
2019-03-27T20:22:33.770Z,83.20
2019-03-27T20:25:18.027Z,83.40
2019-03-27T20:27:51.703Z,83.30
2019-03-27T20:30:27.034Z,83.40
2019-03-27T20:33:01.754Z,83.50
2019-03-27T20:35:36.330Z,83.20
2019-03-27T20:38:11.626Z,83.20
2019-03-27T20:40:46.562Z,83.20
2019-03-27T20:43:20.594Z,83.40
2019-03-27T20:45:55.789Z,83.30
2019-03-27T20:48:29.054Z,83.40
2019-03-27T20:51:02.512Z,83.70
2019-03-27T20:53:36.351Z,83.80
2019-03-27T20:56:11.444Z,83.90
2019-03-27T20:58:45.002Z,83.80
2019-03-27T21:01:19.562Z,83.90
2019-03-27T21:03:53.867Z,84.10
2019-03-27T21:06:27.735Z,84.20
2019-03-27T21:09:01.562Z,84.20
2019-03-27T21:11:38.116Z,84.10
2019-03-27T21:14:11.958Z,84.10
2019-03-27T21:16:45.849Z,84.30
2019-03-27T21:19:22.466Z,84.40
2019-03-27T21:22:00.841Z,84.50
2019-03-27T21:24:34.393Z,84.80
2019-03-27T21:27:09.476Z,84.90
2019-03-27T21:29:44.635Z,85.00
2019-03-27T21:32:18.592Z,85.10
2019-03-27T21:34:51.600Z,85.30
2019-03-27T21:37:25.224Z,85.40
2019-03-27T21:39:57.888Z,85.90
2019-03-27T21:42:30.871Z,86.10
2019-03-27T21:45:06.635Z,86.50
2019-03-27T21:47:42.698Z,86.70
2019-03-27T21:50:16.051Z,87.00
2019-03-27T21:53:00.515Z,87.30
2019-03-27T21:55:41.905Z,87.20
2019-03-27T21:58:03.159Z,87.10
2019-03-27T22:00:43.281Z,86.80
2019-03-27T22:03:17.919Z,86.70
2019-03-27T22:05:51.219Z,86.70
2019-03-27T22:08:28.794Z,86.40
2019-03-27T22:11:04.747Z,86.60
2019-03-27T22:13:37.942Z,86.80
2019-03-27T22:16:15.574Z,87.10
2019-03-27T22:18:49.453Z,87.30
2019-03-27T22:21:24.029Z,87.50
2019-03-27T22:23:59.693Z,87.70
2019-03-27T22:26:37.507Z,87.80
2019-03-27T22:29:17.198Z,88.00
2019-03-27T22:31:50.949Z,88.00
2019-03-27T22:34:25.333Z,88.10
2019-03-27T22:36:59.584Z,88.30
2019-03-27T22:39:33.189Z,88.30
2019-03-27T22:42:07.362Z,88.40
2019-03-27T22:44:46.747Z,88.70
2019-03-27T22:47:21.278Z,88.80
2019-03-27T22:49:54.244Z,89.10
2019-03-27T22:52:29.270Z,89.40
2019-03-27T22:55:02.709Z,89.60
2019-03-27T22:57:36.424Z,90.00
2019-03-27T23:00:11.237Z,90.10
2019-03-27T23:02:48.189Z,90.30
2019-03-27T23:05:23.345Z,90.20
2019-03-27T23:07:57.949Z,90.20
2019-03-27T23:10:33.063Z,90.30
2019-03-27T23:13:07.000Z,90.50
2019-03-27T23:15:41.491Z,90.60
2019-03-27T23:18:14.960Z,90.80
2019-03-27T23:20:49.467Z,91.00
2019-03-27T23:23:24.375Z,91.10
2019-03-27T23:26:02.849Z,91.10
2019-03-27T23:28:32.502Z,91.30
2019-03-27T23:31:05.366Z,91.40
2019-03-27T23:33:38.230Z,91.30
2019-03-27T23:36:11.050Z,91.30
2019-03-27T23:38:44.676Z,91.60
2019-03-27T23:41:19.491Z,91.50
2019-03-27T23:43:52.419Z,91.70
2019-03-27T23:46:25.199Z,91.70
2019-03-27T23:48:58.881Z,92.10
2019-03-27T23:51:31.551Z,92.30
2019-03-27T23:54:04.972Z,92.10
2019-03-27T23:56:38.015Z,92.00
2019-03-27T23:59:11.205Z,92.00
